Time;durP1;ratioP1;P1;durP2;ratioP2;P2;SDS_P1;SDS_P2;PMS_P1;PMS_P2;Temp;Humidity;BMP_temperature;BMP_pressure;BME280_temperature;BME280_humidity;BME280_pressure;Samples;Min_cycle;Max_cycle;Signal;HPM_P1;HPM_P2
2023/11/21 00:01:54;;;;;;;12.40;9.10;;;7.50;99.90;;;;;;5029181;28;20440;-68
2023/11/21 00:04:21;;;;;;;10.27;9.10;;;7.50;99.90;;;;;;5029806;28;20451;-66
2023/11/21 00:06:47;;;;;;;11.30;9.60;;;7.50;99.90;;;;;;5030268;28;20437;-67
2023/11/21 00:09:15;;;;;;;12.90;9.20;;;7.50;99.90;;;;;;5029837;28;20440;-68
2023/11/21 00:11:41;;;;;;;10.03;8.93;;;7.50;99.90;;;;;;5044379;28;20501;-67
2023/11/21 00:14:08;;;;;;;12.40;8.87;;;7.60;99.90;;;;;;5043552;28;20534;-67
2023/11/21 00:16:34;;;;;;;17.43;10.30;;;7.60;99.90;;;;;;5032051;28;20471;-67
2023/11/21 00:18:59;;;;;;;17.80;12.40;;;7.60;99.90;;;;;;5029524;28;20533;-67
2023/11/21 00:21:25;;;;;;;12.97;11.47;;;7.70;99.90;;;;;;5030070;28;20427;-66
2023/11/21 00:23:51;;;;;;;13.27;10.60;;;7.80;99.90;;;;;;5029348;28;20239;-67
2023/11/21 00:26:17;;;;;;;16.50;11.80;;;7.80;99.90;;;;;;5030567;28;20185;-67
2023/11/21 00:28:43;;;;;;;16.70;11.10;;;7.80;99.90;;;;;;5018593;28;20174;-67
2023/11/21 00:31:08;;;;;;;13.63;11.23;;;7.80;99.90;;;;;;5028968;28;20417;-67
2023/11/21 00:33:34;;;;;;;13.60;11.10;;;7.80;99.90;;;;;;5028915;28;20546;-67
2023/11/21 00:36:00;;;;;;;20.23;11.57;;;7.70;99.90;;;;;;5028554;28;20622;-66
2023/11/21 00:38:27;;;;;;;14.43;11.33;;;7.70;99.90;;;;;;5030176;28;20204;-69
2023/11/21 00:40:55;;;;;;;13.60;10.63;;;7.80;99.90;;;;;;5028887;28;20812;-68
2023/11/21 00:43:23;;;;;;;13.27;10.23;;;7.80;99.90;;;;;;5029692;28;20469;-68
2023/11/21 00:45:51;;;;;;;18.23;11.97;;;7.80;99.90;;;;;;5028974;28;20437;-68
2023/11/21 00:48:17;;;;;;;16.00;12.50;;;7.90;99.90;;;;;;5030348;28;20530;-67
2023/11/21 00:50:44;;;;;;;16.13;11.63;;;8.00;99.90;;;;;;5029346;28;20886;-66
2023/11/21 00:53:10;;;;;;;14.40;11.10;;;8.00;99.90;;;;;;5029079;28;20475;-68
2023/11/21 00:55:36;;;;;;;17.30;11.33;;;8.10;99.90;;;;;;5029559;28;21040;-68
2023/11/21 00:58:04;;;;;;;16.20;11.30;;;8.10;99.90;;;;;;5028149;28;20438;-68
2023/11/21 01:00:29;;;;;;;17.40;11.20;;;8.20;99.90;;;;;;5029191;28;20494;-67
2023/11/21 01:02:55;;;;;;;14.20;11.33;;;8.20;99.90;;;;;;5028179;28;20981;-67
2023/11/21 01:05:21;;;;;;;15.03;11.30;;;8.30;99.90;;;;;;5030440;28;20632;-66
2023/11/21 01:07:47;;;;;;;12.00;10.20;;;8.30;99.90;;;;;;5028328;28;20432;-67
2023/11/21 01:10:14;;;;;;;15.93;11.73;;;8.30;99.90;;;;;;5028575;28;20793;-67
2023/11/21 01:12:39;;;;;;;18.60;12.07;;;8.30;99.90;;;;;;5028429;28;20203;-68
2023/11/21 01:15:08;;;;;;;15.07;11.67;;;8.40;99.90;;;;;;5026206;28;20788;-68
2023/11/21 01:17:35;;;;;;;13.90;10.93;;;8.40;99.90;;;;;;5045086;28;20244;-68
2023/11/21 01:20:02;;;;;;;13.90;9.83;;;8.40;99.90;;;;;;5028427;28;20641;-67
2023/11/21 01:22:28;;;;;;;14.20;11.43;;;8.40;99.90;;;;;;5033651;28;20428;-67
2023/11/21 01:24:54;;;;;;;13.67;10.07;;;8.40;99.90;;;;;;5026841;28;20448;-67
2023/11/21 01:27:20;;;;;;;15.27;10.20;;;8.40;99.90;;;;;;5029637;28;20654;-67
2023/11/21 01:29:46;;;;;;;17.90;10.70;;;8.30;99.90;;;;;;5026953;28;20226;-67
2023/11/21 01:32:12;;;;;;;15.53;11.03;;;8.30;99.90;;;;;;5028715;28;21045;-68
2023/11/21 01:34:38;;;;;;;12.03;9.87;;;8.40;99.90;;;;;;5027567;28;20259;-68
2023/11/21 01:37:05;;;;;;;15.90;11.17;;;8.30;99.90;;;;;;5027103;28;20856;-66
2023/11/21 01:39:31;;;;;;;14.47;9.83;;;8.40;99.90;;;;;;5029250;28;20193;-68
2023/11/21 01:42:01;;;;;;;16.33;11.23;;;8.40;99.90;;;;;;5026037;28;20440;-67
2023/11/21 01:44:26;;;;;;;16.13;10.63;;;8.40;99.90;;;;;;5027273;28;20432;-68
2023/11/21 01:46:53;;;;;;;14.70;11.17;;;8.40;99.90;;;;;;5028356;28;20953;-66
2023/11/21 01:49:20;;;;;;;13.50;10.17;;;8.50;99.90;;;;;;5029454;28;20504;-69
2023/11/21 01:51:49;;;;;;;14.23;10.10;;;8.50;99.90;;;;;;5028217;28;20992;-67
2023/11/21 01:54:18;;;;;;;13.80;10.30;;;8.50;99.90;;;;;;5028610;28;20460;-68
2023/11/21 01:56:48;;;;;;;13.53;10.67;;;8.50;99.90;;;;;;5031774;28;20759;-66
2023/11/21 01:59:18;;;;;;;13.57;9.80;;;8.60;99.90;;;;;;5042671;28;20420;-67
2023/11/21 02:01:43;;;;;;;16.50;10.77;;;8.50;99.90;;;;;;5026179;28;20425;-68
2023/11/21 02:04:09;;;;;;;13.43;10.07;;;8.50;99.90;;;;;;5027834;28;21235;-66
2023/11/21 02:06:35;;;;;;;13.17;9.40;;;8.50;99.90;;;;;;5028129;28;20177;-66
2023/11/21 02:09:01;;;;;;;12.57;9.40;;;8.50;99.90;;;;;;5028412;28;20691;-67
2023/11/21 02:11:27;;;;;;;13.33;11.30;;;8.50;99.90;;;;;;5028058;28;20709;-68
2023/11/21 02:13:53;;;;;;;13.10;10.67;;;8.60;99.90;;;;;;5031966;28;20253;-67
2023/11/21 02:16:20;;;;;;;12.17;9.33;;;8.50;99.90;;;;;;5027245;28;20444;-67
2023/11/21 02:18:48;;;;;;;12.93;9.83;;;8.50;99.90;;;;;;5027709;28;20421;-68
2023/11/21 02:21:14;;;;;;;11.90;9.70;;;8.50;99.90;;;;;;5028072;28;20609;-67
2023/11/21 02:23:44;;;;;;;13.33;9.60;;;8.60;99.90;;;;;;5027654;28;20490;-67
2023/11/21 02:26:10;;;;;;;11.53;9.80;;;8.60;99.90;;;;;;5027908;28;20928;-68
2023/11/21 02:28:38;;;;;;;12.23;10.00;;;8.60;99.90;;;;;;5028049;28;20432;-67
2023/11/21 02:31:04;;;;;;;11.73;9.10;;;8.50;99.90;;;;;;5027668;28;20472;-67
2023/11/21 02:33:33;;;;;;;13.37;10.53;;;8.60;99.90;;;;;;5027766;28;20974;-67
2023/11/21 02:36:00;;;;;;;15.20;11.57;;;8.60;99.90;;;;;;5027993;28;20424;-67
2023/11/21 02:38:25;;;;;;;16.93;11.00;;;8.60;99.90;;;;;;5028283;28;20432;-67
2023/11/21 02:40:51;;;;;;;12.13;10.17;;;8.60;99.90;;;;;;5027832;28;20440;-68
2023/11/21 02:43:17;;;;;;;13.97;10.97;;;8.60;99.90;;;;;;5027555;28;20190;-66
2023/11/21 02:45:43;;;;;;;13.00;9.97;;;8.60;99.90;;;;;;5027809;28;20706;-68
2023/11/21 02:48:09;;;;;;;14.37;10.90;;;8.60;99.90;;;;;;5026348;28;20227;-68
2023/11/21 02:50:35;;;;;;;13.60;10.37;;;8.60;99.90;;;;;;5027203;28;20268;-67
2023/11/21 02:53:01;;;;;;;17.00;10.80;;;8.60;99.90;;;;;;5028708;28;20660;-67
2023/11/21 02:55:27;;;;;;;12.07;9.40;;;8.50;99.90;;;;;;5027586;28;20421;-67
2023/11/21 02:57:56;;;;;;;13.07;8.90;;;8.50;99.90;;;;;;5030036;28;20428;-67
2023/11/21 03:00:24;;;;;;;13.67;9.50;;;8.50;99.90;;;;;;5032040;28;20459;-68
2023/11/21 03:02:49;;;;;;;13.73;9.97;;;8.50;99.90;;;;;;5030830;28;20559;-67
2023/11/21 03:05:15;;;;;;;13.17;10.10;;;8.50;99.90;;;;;;5038260;28;20421;-68
2023/11/21 03:07:41;;;;;;;17.10;10.93;;;8.50;99.90;;;;;;5030032;28;20811;-67
2023/11/21 03:10:10;;;;;;;15.70;10.40;;;8.50;99.90;;;;;;5030779;28;20200;-68
2023/11/21 03:12:37;;;;;;;11.63;9.40;;;8.50;99.90;;;;;;5046248;28;20585;-67
2023/11/21 03:15:07;;;;;;;15.67;10.60;;;8.50;99.90;;;;;;5030393;28;20452;-67
2023/11/21 03:17:33;;;;;;;13.57;10.03;;;8.50;99.90;;;;;;5031526;28;20495;-68
2023/11/21 03:20:00;;;;;;;15.60;10.00;;;8.50;99.90;;;;;;5031688;28;20481;-67
2023/11/21 03:22:26;;;;;;;15.00;10.27;;;8.50;99.90;;;;;;5037397;28;20447;-67
2023/11/21 03:24:52;;;;;;;17.60;10.23;;;8.50;99.90;;;;;;5030297;28;20961;-67
2023/11/21 03:27:18;;;;;;;18.33;11.23;;;8.50;99.90;;;;;;5031741;28;20429;-68
2023/11/21 03:29:46;;;;;;;16.10;10.53;;;8.50;99.90;;;;;;5030710;28;20418;-68
2023/11/21 03:32:12;;;;;;;16.73;11.70;;;8.60;99.90;;;;;;5032669;28;20431;-68
2023/11/21 03:34:56;;;;;;;13.50;9.73;;;8.60;99.90;;;;;;5029558;28;20475;-67
2023/11/21 03:37:22;;;;;;;13.33;9.97;;;8.60;99.90;;;;;;5031767;28;20440;-68
2023/11/21 03:39:48;;;;;;;14.20;10.00;;;8.60;99.90;;;;;;5030368;28;20433;-67
2023/11/21 03:42:14;;;;;;;15.30;10.50;;;8.60;99.90;;;;;;5029936;28;20436;-67
2023/11/21 03:44:39;;;;;;;13.10;10.63;;;8.60;99.90;;;;;;5030047;28;20656;-67
2023/11/21 03:47:05;;;;;;;13.13;10.30;;;8.60;99.90;;;;;;5029354;28;20205;-67
2023/11/21 03:49:31;;;;;;;13.10;10.13;;;8.60;99.90;;;;;;5031722;28;20192;-67
2023/11/21 03:51:56;;;;;;;14.57;11.00;;;8.50;99.90;;;;;;5030883;28;20193;-67
2023/11/21 03:54:22;;;;;;;13.90;10.80;;;8.50;99.90;;;;;;5030591;28;20546;-66
2023/11/21 03:56:48;;;;;;;21.30;10.53;;;8.50;99.90;;;;;;5030088;28;20184;-67
2023/11/21 03:59:13;;;;;;;15.40;10.27;;;8.50;99.90;;;;;;5036622;28;20190;-67
2023/11/21 04:01:39;;;;;;;13.90;10.70;;;8.50;99.90;;;;;;5029440;28;20511;-68
2023/11/21 04:04:05;;;;;;;15.97;10.70;;;8.50;99.90;;;;;;5028746;28;20185;-67
2023/11/21 04:06:32;;;;;;;16.53;10.97;;;8.50;99.90;;;;;;5045454;28;20190;-69
2023/11/21 04:08:58;;;;;;;20.90;11.43;;;8.50;99.90;;;;;;5030773;28;20237;-67
2023/11/21 04:11:24;;;;;;;18.77;12.23;;;8.60;99.90;;;;;;5030618;28;20428;-68
2023/11/21 04:13:50;;;;;;;21.20;12.27;;;8.60;99.90;;;;;;5029388;28;20915;-67
2023/11/21 04:16:15;;;;;;;22.30;11.53;;;8.60;99.90;;;;;;5030230;28;20189;-66
2023/11/21 04:18:41;;;;;;;15.27;10.70;;;8.70;99.90;;;;;;5029455;28;20213;-68
2023/11/21 04:21:07;;;;;;;18.00;12.20;;;8.70;99.90;;;;;;5030508;28;20449;-68
2023/11/21 04:23:34;;;;;;;14.47;10.93;;;8.70;99.90;;;;;;5030275;28;20648;-67
2023/11/21 04:26:01;;;;;;;22.17;11.10;;;8.70;99.90;;;;;;5030084;28;20860;-68
2023/11/21 04:28:27;;;;;;;16.57;10.70;;;8.70;99.90;;;;;;5029554;28;20428;-67
2023/11/21 04:30:53;;;;;;;15.30;10.70;;;8.70;99.90;;;;;;5028799;28;20447;-68
2023/11/21 04:33:19;;;;;;;20.30;11.40;;;8.70;99.90;;;;;;5035425;28;20471;-68
2023/11/21 04:35:45;;;;;;;12.10;9.20;;;8.70;99.90;;;;;;5035265;28;20189;-68
2023/11/21 04:38:10;;;;;;;13.50;9.87;;;8.80;99.90;;;;;;5029542;28;20181;-68
2023/11/21 04:40:36;;;;;;;15.00;11.13;;;8.70;99.90;;;;;;5028868;28;20463;-68
2023/11/21 04:43:03;;;;;;;15.03;10.70;;;8.70;99.90;;;;;;5029797;28;20239;-68
2023/11/21 04:45:29;;;;;;;12.70;10.17;;;8.70;99.90;;;;;;5028470;28;20576;-68
2023/11/21 04:47:56;;;;;;;13.50;10.70;;;8.70;99.90;;;;;;5029837;28;20958;-68
2023/11/21 04:50:21;;;;;;;14.50;10.67;;;8.60;99.90;;;;;;5030829;28;20915;-69
2023/11/21 04:52:47;;;;;;;15.20;10.60;;;8.60;99.90;;;;;;5029359;28;20433;-68
2023/11/21 04:55:13;;;;;;;13.63;10.03;;;8.60;99.90;;;;;;5029856;28;20239;-68
2023/11/21 04:57:41;;;;;;;14.27;10.60;;;8.50;99.90;;;;;;5029501;28;20895;-67
2023/11/21 05:00:09;;;;;;;15.67;10.50;;;8.50;99.90;;;;;;5028328;28;20301;-69
2023/11/21 05:02:35;;;;;;;15.03;9.70;;;8.50;99.90;;;;;;5028430;28;20433;-67
2023/11/21 05:05:01;;;;;;;12.87;9.47;;;8.40;99.90;;;;;;5028760;28;20425;-67
2023/11/21 05:07:30;;;;;;;13.60;9.37;;;8.40;99.90;;;;;;5028778;28;20436;-67
2023/11/21 05:09:55;;;;;;;13.50;9.87;;;8.30;99.90;;;;;;5028660;28;20500;-67
2023/11/21 05:12:24;;;;;;;14.97;9.17;;;8.30;99.90;;;;;;5028560;28;20525;-69
2023/11/21 05:14:51;;;;;;;12.67;9.67;;;8.20;99.90;;;;;;5028718;28;20788;-67
2023/11/21 05:17:17;;;;;;;11.40;8.63;;;8.20;99.90;;;;;;5029602;28;21050;-68
2023/11/21 05:19:45;;;;;;;10.47;8.27;;;8.10;99.90;;;;;;5011380;28;20417;-67
2023/11/21 05:22:12;;;;;;;13.23;9.40;;;8.10;99.90;;;;;;5028275;28;20487;-68
2023/11/21 05:24:39;;;;;;;12.67;8.93;;;8.00;99.90;;;;;;5027554;28;20443;-67
2023/11/21 05:27:05;;;;;;;14.60;7.97;;;7.90;99.90;;;;;;5029590;28;20429;-68
2023/11/21 05:29:31;;;;;;;11.80;8.93;;;7.90;99.90;;;;;;5029374;28;20435;-67
2023/11/21 05:31:56;;;;;;;10.10;8.40;;;7.90;99.90;;;;;;5029565;28;20472;-66
2023/11/21 05:34:23;;;;;;;12.20;9.20;;;7.80;99.90;;;;;;5027429;28;20559;-68
2023/11/21 05:36:50;;;;;;;13.60;9.63;;;7.80;99.90;;;;;;5028147;28;20255;-68
2023/11/21 05:39:19;;;;;;;14.67;9.73;;;7.80;99.90;;;;;;5028709;28;20487;-68
2023/11/21 05:41:45;;;;;;;12.87;9.60;;;7.80;99.90;;;;;;5027934;28;20432;-67
2023/11/21 05:44:12;;;;;;;16.40;10.20;;;7.90;99.90;;;;;;5028142;28;20432;-67
2023/11/21 05:46:37;;;;;;;14.67;9.00;;;7.90;99.90;;;;;;5028244;28;20452;-68
2023/11/21 05:49:03;;;;;;;15.63;11.00;;;7.90;99.90;;;;;;5028796;28;20437;-69
2023/11/21 05:51:29;;;;;;;17.13;10.80;;;7.90;99.90;;;;;;5029179;28;20192;-67
2023/11/21 05:53:55;;;;;;;15.97;10.40;;;8.00;99.90;;;;;;5028163;28;20577;-66
2023/11/21 05:56:20;;;;;;;15.00;9.80;;;8.00;99.90;;;;;;5027731;28;20288;-68
2023/11/21 05:58:46;;;;;;;15.10;9.93;;;8.10;99.90;;;;;;5027553;28;20227;-68
2023/11/21 06:01:12;;;;;;;15.93;10.37;;;8.10;99.90;;;;;;5028732;28;20185;-68
2023/11/21 06:03:38;;;;;;;15.23;9.37;;;8.10;99.90;;;;;;5026799;28;20553;-67
2023/11/21 06:06:04;;;;;;;16.57;10.17;;;8.20;99.90;;;;;;5027909;28;20432;-67
2023/11/21 06:08:30;;;;;;;14.80;9.30;;;8.10;99.90;;;;;;5027446;28;20429;-67
2023/11/21 06:10:56;;;;;;;12.90;9.67;;;8.20;99.90;;;;;;5028808;28;20827;-66
2023/11/21 06:13:24;;;;;;;20.40;10.93;;;8.10;99.90;;;;;;5027756;28;20464;-68
2023/11/21 06:15:53;;;;;;;13.63;9.70;;;8.20;99.90;;;;;;5027948;28;20622;-67
2023/11/21 06:18:21;;;;;;;14.50;9.43;;;8.20;99.90;;;;;;5028455;28;20927;-68
2023/11/21 06:20:47;;;;;;;14.47;10.33;;;8.20;99.90;;;;;;5028682;28;20950;-68
2023/11/21 06:23:13;;;;;;;13.70;9.60;;;8.30;99.90;;;;;;5028382;28;20434;-67
2023/11/21 06:25:40;;;;;;;14.10;10.63;;;8.30;99.90;;;;;;5026951;28;20281;-68
2023/11/21 06:28:05;;;;;;;13.33;9.70;;;8.30;99.90;;;;;;5029719;28;20482;-66
2023/11/21 06:30:31;;;;;;;16.87;11.13;;;8.30;99.90;;;;;;5028996;28;20428;-68
2023/11/21 06:32:57;;;;;;;14.80;10.37;;;8.30;99.90;;;;;;5032498;28;20202;-67
2023/11/21 06:35:23;;;;;;;16.67;11.50;;;8.30;99.90;;;;;;5031792;28;20431;-67
2023/11/21 06:37:49;;;;;;;16.23;11.10;;;8.30;99.90;;;;;;5032027;28;20530;-67
2023/11/21 06:40:15;;;;;;;20.07;11.60;;;8.30;99.90;;;;;;5032863;28;20452;-68
2023/11/21 06:42:41;;;;;;;18.47;11.20;;;8.30;99.90;;;;;;5030908;28;20427;-67
2023/11/21 06:45:07;;;;;;;16.13;11.23;;;8.30;99.90;;;;;;5031771;28;20425;-67
2023/11/21 06:47:33;;;;;;;16.03;10.83;;;8.30;99.90;;;;;;5031737;28;21094;-67
2023/11/21 06:50:00;;;;;;;14.77;10.13;;;8.40;99.90;;;;;;5031997;28;20593;-66
2023/11/21 06:52:26;;;;;;;17.63;11.50;;;8.40;99.90;;;;;;5031737;28;20191;-68
2023/11/21 06:54:52;;;;;;;15.80;11.30;;;8.40;99.90;;;;;;5031615;28;20460;-68
2023/11/21 06:57:17;;;;;;;19.23;11.50;;;8.40;99.90;;;;;;5032482;28;20431;-67
2023/11/21 06:59:43;;;;;;;13.83;10.60;;;8.40;99.90;;;;;;5031442;28;20651;-66
2023/11/21 07:02:09;;;;;;;17.10;10.80;;;8.40;99.90;;;;;;5032185;28;20433;-67
2023/11/21 07:04:36;;;;;;;15.90;11.70;;;8.40;99.90;;;;;;5030304;28;20428;-67
2023/11/21 07:07:06;;;;;;;16.50;11.10;;;8.40;99.90;;;;;;5031914;28;21022;-67
2023/11/21 07:09:32;;;;;;;16.33;11.87;;;8.40;99.90;;;;;;5043977;28;20966;-68
2023/11/21 07:11:58;;;;;;;17.83;11.20;;;8.40;99.90;;;;;;5031623;28;20441;-67
2023/11/21 07:14:23;;;;;;;20.60;13.00;;;8.40;99.90;;;;;;5030812;28;20209;-67
2023/11/21 07:16:49;;;;;;;20.40;12.70;;;8.40;99.90;;;;;;5030905;28;20182;-67
2023/11/21 07:19:15;;;;;;;20.37;12.30;;;8.50;99.90;;;;;;5034334;28;20708;-67
2023/11/21 07:21:40;;;;;;;21.07;13.87;;;8.50;99.90;;;;;;5031691;28;20196;-67
2023/11/21 07:24:07;;;;;;;20.83;13.10;;;8.50;99.90;;;;;;5030649;28;20656;-66
2023/11/21 07:26:34;;;;;;;19.00;13.33;;;8.60;99.90;;;;;;5030335;28;20591;-67
2023/11/21 07:29:01;;;;;;;21.77;14.67;;;8.60;99.90;;;;;;5031227;28;20787;-68
2023/11/21 07:31:27;;;;;;;20.20;13.40;;;8.60;99.90;;;;;;5035404;28;20916;-67
2023/11/21 07:33:52;;;;;;;21.27;12.60;;;8.70;99.90;;;;;;5030016;28;20455;-68
2023/11/21 07:36:20;;;;;;;18.60;12.00;;;8.70;99.90;;;;;;5031434;28;20186;-68
2023/11/21 07:38:47;;;;;;;16.97;11.53;;;8.70;99.90;;;;;;5030136;28;20191;-67
2023/11/21 07:41:15;;;;;;;15.87;10.73;;;8.80;99.90;;;;;;5032822;28;20447;-68
2023/11/21 07:43:42;;;;;;;20.10;12.43;;;8.80;99.90;;;;;;5029360;28;20416;-67
2023/11/21 07:46:08;;;;;;;16.73;11.17;;;8.80;99.90;;;;;;5032539;28;20437;-68
2023/11/21 07:48:34;;;;;;;18.80;11.53;;;8.80;99.90;;;;;;5030421;28;20447;-68
2023/11/21 07:51:03;;;;;;;19.60;13.37;;;8.80;99.90;;;;;;5031251;28;20432;-68
2023/11/21 07:53:29;;;;;;;21.50;14.10;;;8.80;99.90;;;;;;5030534;28;20833;-67
2023/11/21 07:56:02;;;;;;;16.53;12.60;;;8.80;99.90;;;;;;5031111;28;20444;-68
2023/11/21 07:58:28;;;;;;;24.30;13.30;;;8.80;99.90;;;;;;5030857;28;20542;-67
2023/11/21 08:00:54;;;;;;;25.00;14.10;;;8.80;99.90;;;;;;5030669;28;20438;-68
2023/11/21 08:03:20;;;;;;;23.30;13.27;;;8.80;99.90;;;;;;5030293;28;20866;-67
2023/11/21 08:05:46;;;;;;;21.43;13.30;;;8.90;99.90;;;;;;5029111;28;20194;-67
2023/11/21 08:08:12;;;;;;;26.93;12.87;;;8.90;99.90;;;;;;5031154;28;20449;-68
2023/11/21 08:10:38;;;;;;;20.90;12.80;;;9.00;99.90;;;;;;5029292;28;20443;-67
2023/11/21 08:13:06;;;;;;;22.87;13.60;;;9.00;99.90;;;;;;5030254;28;20209;-67
2023/11/21 08:15:32;;;;;;;25.50;14.23;;;9.00;99.90;;;;;;5029687;28;20435;-68
2023/11/21 08:18:01;;;;;;;28.63;13.03;;;9.00;99.90;;;;;;5029532;28;20926;-67
2023/11/21 08:20:27;;;;;;;26.07;13.13;;;9.00;99.90;;;;;;5030214;28;20516;-67
2023/11/21 08:22:52;;;;;;;24.03;13.80;;;9.00;99.90;;;;;;5030435;28;20454;-68
2023/11/21 08:25:19;;;;;;;24.53;14.87;;;9.10;99.90;;;;;;5030133;28;20940;-68
2023/11/21 08:27:46;;;;;;;25.80;15.97;;;9.00;99.90;;;;;;5029615;28;20189;-67
2023/11/21 08:30:14;;;;;;;20.80;13.30;;;9.10;99.90;;;;;;5030851;28;20425;-67
2023/11/21 08:32:40;;;;;;;28.73;13.97;;;9.10;99.90;;;;;;5029269;28;20430;-68
2023/11/21 08:35:08;;;;;;;24.77;15.60;;;9.10;99.90;;;;;;5029645;28;20794;-67
2023/11/21 08:37:37;;;;;;;24.23;15.70;;;9.10;99.90;;;;;;5029935;28;20432;-68
2023/11/21 08:40:09;;;;;;;23.13;14.80;;;9.10;99.90;;;;;;5030304;28;20444;-67
2023/11/21 08:42:35;;;;;;;20.70;13.60;;;9.10;99.90;;;;;;5029306;28;20539;-68
2023/11/21 08:45:01;;;;;;;27.97;16.10;;;9.20;99.90;;;;;;5029269;28;20519;-68
2023/11/21 08:47:27;;;;;;;33.50;16.67;;;9.20;99.90;;;;;;5029872;28;20788;-68
2023/11/21 08:49:53;;;;;;;28.83;17.27;;;9.30;99.90;;;;;;5028190;28;20189;-68
2023/11/21 08:52:28;;;;;;;28.10;16.63;;;9.30;99.90;;;;;;5028940;28;20429;-68
2023/11/21 08:54:56;;;;;;;36.43;18.33;;;9.30;99.90;;;;;;5029598;28;20224;-68
2023/11/21 08:57:25;;;;;;;33.67;18.80;;;9.30;99.90;;;;;;5029196;28;20475;-68
2023/11/21 08:59:55;;;;;;;35.20;20.37;;;9.30;99.90;;;;;;5028070;28;20437;-67
2023/11/21 09:02:26;;;;;;;34.87;20.30;;;9.30;99.90;;;;;;5029603;28;20523;-68
2023/11/21 09:04:52;;;;;;;43.40;20.83;;;9.30;99.90;;;;;;5030223;28;20425;-68
2023/11/21 09:07:20;;;;;;;36.27;20.20;;;9.30;99.90;;;;;;5029356;28;20425;-68
2023/11/21 09:09:47;;;;;;;37.53;20.83;;;9.30;99.90;;;;;;5028356;28;20433;-68
2023/11/21 09:12:13;;;;;;;36.77;20.23;;;9.30;99.90;;;;;;5034361;28;20436;-68
2023/11/21 09:14:39;;;;;;;42.77;21.40;;;9.30;99.90;;;;;;5027885;28;20468;-68
2023/11/21 09:17:10;;;;;;;48.57;23.20;;;9.30;99.90;;;;;;5029045;28;20428;-67
2023/11/21 09:19:40;;;;;;;43.20;22.10;;;9.40;99.90;;;;;;5029016;28;20440;-68
2023/11/21 09:22:06;;;;;;;44.77;22.17;;;9.30;99.90;;;;;;5035122;28;20518;-67
2023/11/21 09:24:34;;;;;;;46.70;24.63;;;9.40;99.90;;;;;;5028229;28;20996;-68
2023/11/21 09:27:00;;;;;;;42.57;23.03;;;9.40;99.90;;;;;;5029507;28;20902;-67
2023/11/21 09:29:27;;;;;;;42.90;23.00;;;9.30;99.90;;;;;;5029219;28;20555;-67
2023/11/21 09:31:54;;;;;;;47.73;24.43;;;9.40;99.90;;;;;;5012092;28;20202;-68
2023/11/21 09:34:23;;;;;;;44.13;22.97;;;9.40;99.90;;;;;;5029141;28;20584;-67
2023/11/21 09:36:49;;;;;;;50.33;24.33;;;9.40;99.90;;;;;;5028504;28;20431;-67
2023/11/21 09:39:15;;;;;;;43.63;22.77;;;9.40;99.90;;;;;;5029724;28;20433;-69
2023/11/21 09:41:57;;;;;;;45.73;24.10;;;9.40;99.90;;;;;;5027684;28;20448;-68
2023/11/21 09:45:08;;;;;;;45.20;24.20;;;9.40;99.90;;;;;;5028397;28;20692;-67
2023/11/21 09:47:38;;;;;;;41.47;24.73;;;9.50;99.90;;;;;;5026008;28;20455;-68
2023/11/21 09:50:07;;;;;;;45.17;23.17;;;9.50;99.90;;;;;;5029131;28;20428;-68
2023/11/21 09:52:41;;;;;;;45.53;23.97;;;9.50;99.90;;;;;;5033191;28;20512;-68
2023/11/21 09:55:07;;;;;;;37.90;22.70;;;9.60;99.90;;;;;;5028676;28;20772;-68
2023/11/21 09:57:34;;;;;;;46.23;25.10;;;9.60;99.90;;;;;;5033416;28;20949;-68
2023/11/21 10:00:04;;;;;;;41.83;22.23;;;9.60;99.90;;;;;;5028510;28;20424;-68
2023/11/21 10:02:34;;;;;;;41.90;22.20;;;9.60;99.90;;;;;;5028488;28;20886;-67
2023/11/21 10:05:00;;;;;;;46.83;23.57;;;9.60;99.90;;;;;;5028270;28;20444;-68
2023/11/21 10:07:26;;;;;;;41.87;23.27;;;9.60;99.90;;;;;;5028545;28;20934;-67
2023/11/21 10:09:54;;;;;;;38.70;23.17;;;9.60;99.90;;;;;;5028183;28;20181;-68
2023/11/21 10:12:21;;;;;;;41.20;23.57;;;9.70;99.90;;;;;;5034330;28;20948;-67
2023/11/21 10:14:49;;;;;;;42.90;26.13;;;9.70;99.90;;;;;;5027078;28;21168;-67
2023/11/21 10:17:21;;;;;;;44.30;24.97;;;9.70;99.90;;;;;;5029279;28;20540;-68
2023/11/21 10:19:47;;;;;;;42.80;22.97;;;9.70;99.90;;;;;;5028599;28;20425;-68
2023/11/21 10:22:17;;;;;;;49.87;26.80;;;9.70;99.90;;;;;;5028458;28;20422;-67
2023/11/21 10:24:43;;;;;;;43.00;24.37;;;9.70;99.90;;;;;;5027434;28;21400;-67
2023/11/21 10:27:09;;;;;;;47.67;25.10;;;9.70;99.90;;;;;;5028291;28;20777;-67
2023/11/21 10:29:35;;;;;;;51.13;26.00;;;9.70;99.90;;;;;;5033968;28;20456;-68
2023/11/21 10:32:05;;;;;;;52.37;25.20;;;9.70;99.90;;;;;;5028099;28;20432;-68
2023/11/21 10:34:31;;;;;;;49.97;25.87;;;9.70;99.90;;;;;;5026954;28;20538;-68
2023/11/21 10:36:58;;;;;;;46.70;23.70;;;9.70;99.90;;;;;;5028420;28;20432;-68
2023/11/21 10:39:30;;;;;;;44.50;22.70;;;9.70;99.90;;;;;;5027734;28;20439;-68
2023/11/21 10:41:56;;;;;;;47.63;24.83;;;9.80;99.90;;;;;;5018576;28;20844;-67
2023/11/21 10:44:23;;;;;;;45.73;24.87;;;9.80;99.90;;;;;;5027636;28;20765;-68
2023/11/21 10:46:57;;;;;;;43.57;25.30;;;9.80;99.90;;;;;;5028232;28;20189;-68
2023/11/21 10:49:24;;;;;;;46.50;25.57;;;9.90;99.90;;;;;;5028316;28;20425;-67
2023/11/21 10:51:53;;;;;;;42.87;24.80;;;10.00;99.90;;;;;;5027485;28;20971;-67
2023/11/21 10:54:25;;;;;;;41.67;25.10;;;10.10;99.90;;;;;;5028599;28;20464;-68
2023/11/21 10:56:56;;;;;;;42.67;24.23;;;10.00;99.90;;;;;;5028926;28;20437;-68
2023/11/21 10:59:25;;;;;;;44.53;24.67;;;10.10;99.90;;;;;;5028063;28;20429;-68
2023/11/21 11:01:52;;;;;;;42.90;24.00;;;10.10;99.90;;;;;;5028583;28;20911;-67
2023/11/21 11:04:22;;;;;;;49.70;26.67;;;10.10;99.90;;;;;;5027847;28;20480;-68
2023/11/21 11:07:12;;;;;;;48.53;25.07;;;10.10;99.90;;;;;;5027750;28;20424;-67
2023/11/21 11:09:37;;;;;;;52.00;24.57;;;10.10;99.90;;;;;;5027783;28;20523;-67
2023/11/21 11:12:04;;;;;;;49.63;26.40;;;10.10;99.90;;;;;;5027968;28;20438;-68
2023/11/21 11:14:32;;;;;;;43.77;26.27;;;10.10;99.90;;;;;;5027085;28;20566;-68
2023/11/21 11:17:00;;;;;;;60.23;27.60;;;10.10;99.90;;;;;;5028375;28;20511;-68
2023/11/21 11:19:25;;;;;;;52.23;27.70;;;10.10;99.90;;;;;;5031973;28;20459;-68
2023/11/21 11:22:28;;;;;;;56.07;28.17;;;10.20;99.90;;;;;;5031278;28;20998;-68
2023/11/21 11:25:05;;;;;;;50.30;27.40;;;10.20;99.90;;;;;;5031505;28;20623;-68
2023/11/21 11:28:04;;;;;;;51.67;25.00;;;10.20;99.90;;;;;;5031708;28;20428;-68
2023/11/21 11:30:49;;;;;;;55.40;27.67;;;10.20;99.90;;;;;;5031362;28;20429;-68
2023/11/21 11:33:36;;;;;;;46.53;25.53;;;10.30;99.90;;;;;;5031657;28;20836;-68
2023/11/21 11:36:15;;;;;;;56.07;27.97;;;10.30;99.90;;;;;;5024982;28;20561;-68
2023/11/21 11:38:46;;;;;;;46.07;25.77;;;10.30;99.90;;;;;;5031504;28;21064;-68
2023/11/21 11:41:12;;;;;;;46.73;24.40;;;10.30;99.90;;;;;;5030746;28;20445;-68
2023/11/21 11:43:44;;;;;;;52.93;25.13;;;10.30;99.90;;;;;;5030577;28;20428;-68
2023/11/21 11:46:14;;;;;;;43.60;24.77;;;10.40;99.90;;;;;;5030646;28;20947;-68
2023/11/21 11:48:40;;;;;;;38.60;22.00;;;10.40;99.90;;;;;;5031553;28;20860;-68
2023/11/21 11:51:14;;;;;;;51.17;25.90;;;10.40;99.90;;;;;;5030435;28;20460;-68
2023/11/21 11:53:45;;;;;;;45.97;24.90;;;10.40;99.90;;;;;;5030337;28;20456;-68
2023/11/21 11:56:33;;;;;;;47.90;22.10;;;10.50;99.90;;;;;;5030217;28;21295;-67
2023/11/21 11:59:04;;;;;;;44.67;24.63;;;10.50;99.90;;;;;;5031671;28;20433;-68
2023/11/21 12:01:32;;;;;;;65.23;26.47;;;10.50;99.90;;;;;;5029981;28;20432;-68
2023/11/21 12:04:33;;;;;;;41.63;22.80;;;10.50;99.90;;;;;;5030709;28;20632;-68
2023/11/21 12:07:03;;;;;;;47.30;24.23;;;10.50;99.90;;;;;;5053420;28;20439;-68
2023/11/21 12:09:29;;;;;;;44.13;25.33;;;10.50;99.90;;;;;;5030529;28;20549;-68
2023/11/21 12:11:56;;;;;;;46.73;25.67;;;10.50;99.90;;;;;;5031361;28;20496;-68
2023/11/21 12:14:23;;;;;;;40.60;27.03;;;10.50;99.90;;;;;;5030296;28;20702;-67
2023/11/21 12:16:49;;;;;;;43.13;25.60;;;10.50;99.90;;;;;;5030450;28;20456;-68
2023/11/21 12:19:14;;;;;;;47.93;23.47;;;10.50;99.90;;;;;;5029997;28;20523;-67
2023/11/21 12:21:41;;;;;;;47.10;25.50;;;10.50;99.90;;;;;;5029209;28;20453;-68
2023/11/21 12:24:13;;;;;;;40.13;24.50;;;10.50;99.90;;;;;;5028541;28;20476;-68
2023/11/21 12:26:42;;;;;;;34.00;20.80;;;10.50;99.90;;;;;;5029558;28;20960;-68
2023/11/21 12:29:08;;;;;;;30.50;21.30;;;10.50;99.90;;;;;;5029032;28;20432;-68
2023/11/21 12:31:35;;;;;;;32.50;20.83;;;10.40;99.90;;;;;;5029133;28;21531;-67
2023/11/21 12:34:01;;;;;;;27.00;17.80;;;10.50;99.90;;;;;;5029658;28;20210;-67
2023/11/21 12:36:28;;;;;;;27.90;16.80;;;10.50;99.90;;;;;;5028452;28;20483;-68
2023/11/21 12:38:54;;;;;;;24.63;17.40;;;10.50;99.90;;;;;;5029181;28;20185;-68
2023/11/21 12:41:21;;;;;;;26.53;15.73;;;10.50;99.90;;;;;;5028310;28;20449;-68